createdAt,value
2023-05-03T00:02:24.691Z,82.11
2023-05-03T00:04:54.770Z,82.87
2023-05-03T00:07:23.251Z,83.54
2023-05-03T00:09:50.361Z,83.42
2023-05-03T00:12:17.422Z,81.36
2023-05-03T00:14:46.299Z,81.88
2023-05-03T00:17:13.609Z,81.94
2023-05-03T00:19:40.791Z,82.35
2023-05-03T00:22:07.968Z,82.73
2023-05-03T00:24:35.319Z,82.56
2023-05-03T00:27:03.756Z,83.24
2023-05-03T00:29:30.490Z,83.09
2023-05-03T00:31:57.489Z,82.69
2023-05-03T00:34:24.573Z,82.05
2023-05-03T00:36:51.736Z,82.66
2023-05-03T00:39:18.634Z,83.08
2023-05-03T00:41:45.507Z,84.00
2023-05-03T00:44:12.417Z,83.39
2023-05-03T00:46:39.403Z,84.01
2023-05-03T00:49:06.701Z,83.09
2023-05-03T00:51:34.117Z,83.71
2023-05-03T00:54:01.212Z,83.09
2023-05-03T00:56:31.102Z,83.75
2023-05-03T00:59:00.896Z,84.08
2023-05-03T01:01:29.399Z,83.38
2023-05-03T01:03:57.293Z,83.47
2023-05-03T01:06:38.455Z,84.16
2023-05-03T01:09:11.575Z,84.23
2023-05-03T01:11:57.098Z,84.79
2023-05-03T01:14:35.869Z,85.06
2023-05-03T01:17:09.232Z,84.90
2023-05-03T01:19:51.820Z,85.20
2023-05-03T01:22:41.877Z,85.12
2023-05-03T01:25:11.314Z,85.31
2023-05-03T01:27:39.300Z,83.62
2023-05-03T01:30:08.314Z,83.99
2023-05-03T01:32:53.661Z,84.27
2023-05-03T01:35:31.429Z,85.23
2023-05-03T01:37:59.342Z,84.44
2023-05-03T01:40:28.400Z,84.60
2023-05-03T01:42:56.976Z,84.28
2023-05-03T01:45:23.985Z,84.14
2023-05-03T01:47:51.037Z,84.16
2023-05-03T01:50:18.141Z,82.92
2023-05-03T01:52:45.535Z,83.39
2023-05-03T01:55:12.461Z,83.32
2023-05-03T01:57:42.721Z,83.28
2023-05-03T02:00:12.520Z,82.79
2023-05-03T02:02:39.631Z,83.73
2023-05-03T02:05:06.930Z,83.00
2023-05-03T02:07:33.908Z,82.24
2023-05-03T02:10:01.116Z,82.63
2023-05-03T02:12:28.233Z,82.13
2023-05-03T02:14:55.379Z,81.92
2023-05-03T02:17:26.757Z,82.24
2023-05-03T02:19:53.906Z,81.48
2023-05-03T02:22:20.717Z,80.23
2023-05-03T02:24:47.734Z,81.14
2023-05-03T02:27:15.294Z,80.92
2023-05-03T02:29:42.183Z,80.85
2023-05-03T02:32:09.115Z,80.75
2023-05-03T02:34:36.517Z,81.25
2023-05-03T02:37:03.495Z,81.06
2023-05-03T02:39:30.456Z,80.68
2023-05-03T02:41:57.454Z,81.22
2023-05-03T02:44:24.602Z,80.63
2023-05-03T02:46:51.674Z,80.45
2023-05-03T02:49:18.621Z,81.44
2023-05-03T02:51:46.118Z,81.93
2023-05-03T02:54:13.033Z,81.53
2023-05-03T02:56:39.848Z,81.06
2023-05-03T02:59:06.908Z,80.96
2023-05-03T03:01:34.608Z,79.37
2023-05-03T03:04:01.721Z,80.27
2023-05-03T03:06:28.940Z,80.41
2023-05-03T03:08:55.754Z,80.58
2023-05-03T03:11:24.178Z,80.63
2023-05-03T03:13:51.001Z,81.19
2023-05-03T03:16:18.126Z,80.14
2023-05-03T03:18:46.158Z,80.00
2023-05-03T03:21:12.907Z,80.46
2023-05-03T03:23:39.772Z,80.47
2023-05-03T03:26:06.599Z,79.76
2023-05-03T03:28:33.638Z,80.02
2023-05-03T03:31:00.606Z,78.97
2023-05-03T03:33:27.761Z,79.18
2023-05-03T03:35:57.090Z,80.38
2023-05-03T03:38:24.692Z,79.59
2023-05-03T03:40:53.059Z,80.64
2023-05-03T03:43:20.001Z,78.91
2023-05-03T03:45:49.851Z,78.23
2023-05-03T03:48:19.963Z,78.92
2023-05-03T03:50:49.712Z,78.13
2023-05-03T03:53:16.698Z,78.09
2023-05-03T03:55:43.611Z,78.46
2023-05-03T03:58:10.492Z,78.60
2023-05-03T04:00:37.697Z,79.05
2023-05-03T04:03:07.820Z,79.16
2023-05-03T04:05:38.030Z,78.53
2023-05-03T04:08:07.885Z,77.56
2023-05-03T04:10:34.822Z,77.91
2023-05-03T04:13:01.982Z,76.14
2023-05-03T04:15:29.012Z,77.44
2023-05-03T04:17:56.125Z,76.13
2023-05-03T04:20:23.807Z,77.32
2023-05-03T04:22:50.786Z,77.93
2023-05-03T04:25:18.513Z,77.48
2023-05-03T04:27:46.295Z,78.64
2023-05-03T04:30:15.289Z,79.29
2023-05-03T04:32:43.011Z,77.97
2023-05-03T04:35:12.812Z,77.42
2023-05-03T04:37:42.158Z,77.11
2023-05-03T04:40:12.815Z,74.94
2023-05-03T04:42:39.767Z,73.63
2023-05-03T04:45:08.089Z,74.97
2023-05-03T04:47:35.028Z,74.57
2023-05-03T04:50:02.546Z,74.21
2023-05-03T04:52:30.056Z,73.82
2023-05-03T04:54:57.204Z,72.83
2023-05-03T04:57:24.042Z,72.08
2023-05-03T04:59:51.345Z,71.66
2023-05-03T05:02:18.214Z,71.86
2023-05-03T05:04:45.146Z,70.07
2023-05-03T05:07:13.503Z,69.66
2023-05-03T05:09:40.561Z,69.45
2023-05-03T05:12:07.922Z,68.83
2023-05-03T05:14:37.806Z,68.16
2023-05-03T05:17:04.845Z,67.20
2023-05-03T05:19:31.836Z,66.57
2023-05-03T05:21:58.739Z,65.82
2023-05-03T05:24:26.094Z,64.13
2023-05-03T05:26:53.324Z,63.55
2023-05-03T05:29:20.236Z,63.64
2023-05-03T05:31:47.384Z,63.35
2023-05-03T05:34:14.486Z,62.71
2023-05-03T05:36:41.378Z,62.40
2023-05-03T05:39:08.444Z,60.53
2023-05-03T05:41:36.830Z,59.83
2023-05-03T05:44:03.855Z,58.50
2023-05-03T05:46:30.897Z,57.97
2023-05-03T05:49:00.387Z,56.57
2023-05-03T05:51:28.174Z,56.32
2023-05-03T05:53:55.288Z,55.64
2023-05-03T05:56:22.348Z,54.36
2023-05-03T05:58:49.485Z,52.94
2023-05-03T06:01:16.532Z,51.89
2023-05-03T06:03:43.568Z,52.29
2023-05-03T06:06:10.359Z,50.51
2023-05-03T06:08:37.490Z,50.39
2023-05-03T06:11:04.434Z,48.94
2023-05-03T06:13:33.444Z,49.54
2023-05-03T06:16:00.381Z,48.20
2023-05-03T06:18:27.183Z,47.67
2023-05-03T06:20:54.188Z,46.25
2023-05-03T06:23:21.169Z,47.38
2023-05-03T06:25:48.513Z,46.62
2023-05-03T06:28:15.351Z,46.84
2023-05-03T06:30:42.368Z,46.28
2023-05-03T06:33:12.998Z,45.77
2023-05-03T06:35:40.152Z,46.30
2023-05-03T06:38:07.713Z,45.46
2023-05-03T06:40:35.978Z,44.69
2023-05-03T06:43:05.093Z,43.61
2023-05-03T06:45:32.152Z,41.83
2023-05-03T06:47:59.464Z,40.29
2023-05-03T06:50:26.440Z,40.74
2023-05-03T06:52:56.007Z,38.48
2023-05-03T06:55:23.092Z,35.28
2023-05-03T06:57:49.976Z,33.96
2023-05-03T07:00:17.152Z,32.74
2023-05-03T07:02:44.635Z,32.00
2023-05-03T07:05:14.665Z,31.91
2023-05-03T07:07:41.482Z,30.53
2023-05-03T07:10:08.619Z,28.63
2023-05-03T07:12:35.725Z,26.87
2023-05-03T07:15:02.459Z,28.93
2023-05-03T07:17:29.448Z,27.97
2023-05-03T07:19:57.363Z,26.16
2023-05-03T07:22:28.144Z,23.33
2023-05-03T07:24:56.067Z,22.22
2023-05-03T07:27:23.087Z,20.67
2023-05-03T07:29:50.397Z,19.14
2023-05-03T07:32:17.506Z,15.74
2023-05-03T07:34:44.368Z,16.85
2023-05-03T07:37:14.014Z,18.95
2023-05-03T07:39:41.752Z,20.11
2023-05-03T07:42:08.822Z,19.68
2023-05-03T07:44:35.972Z,16.77
2023-05-03T07:47:03.307Z,17.89
2023-05-03T07:49:31.266Z,19.66
2023-05-03T07:51:59.135Z,20.37
2023-05-03T07:54:26.076Z,22.58
2023-05-03T07:56:55.021Z,19.25
2023-05-03T07:59:22.618Z,19.53
2023-05-03T08:01:49.680Z,23.54
2023-05-03T08:04:16.563Z,26.30
2023-05-03T08:06:43.847Z,27.60
2023-05-03T08:09:11.911Z,29.11
2023-05-03T08:11:38.852Z,30.63
2023-05-03T08:14:06.497Z,30.48
2023-05-03T08:16:33.586Z,30.67
2023-05-03T08:19:00.642Z,29.59
2023-05-03T08:21:31.781Z,29.48
2023-05-03T08:23:58.654Z,29.38
2023-05-03T08:26:28.779Z,29.35
2023-05-03T08:28:55.686Z,29.66
2023-05-03T08:31:22.692Z,28.46
2023-05-03T08:33:50.013Z,28.27
2023-05-03T08:36:17.279Z,27.35
2023-05-03T08:38:44.284Z,27.24
2023-05-03T08:41:32.047Z,26.16
2023-05-03T08:44:01.782Z,25.46
2023-05-03T08:46:29.329Z,21.94
2023-05-03T08:48:57.101Z,14.53
2023-05-03T08:51:25.638Z,9.67
2023-05-03T08:53:52.874Z,6.94
2023-05-03T08:56:44.413Z,5.83
2023-05-03T08:59:12.006Z,5.49
2023-05-03T09:01:42.322Z,6.43
2023-05-03T09:04:11.175Z,4.86
2023-05-03T09:06:39.031Z,5.49
2023-05-03T09:09:08.846Z,9.51
2023-05-03T09:11:38.058Z,13.08
2023-05-03T09:14:15.998Z,16.19
2023-05-03T09:16:46.708Z,18.18
2023-05-03T09:19:15.295Z,18.94
2023-05-03T09:21:44.511Z,20.88
2023-05-03T09:24:23.843Z,20.88
2023-05-03T09:26:52.187Z,22.74
2023-05-03T09:29:37.407Z,22.18
2023-05-03T09:32:06.426Z,22.76
2023-05-03T09:34:37.745Z,23.86
2023-05-03T09:37:07.680Z,19.48
2023-05-03T09:39:37.015Z,18.50
2023-05-03T09:42:17.871Z,18.48
2023-05-03T09:44:54.204Z,19.47
2023-05-03T09:47:24.810Z,17.78
2023-05-03T09:49:52.058Z,15.60
2023-05-03T09:52:20.072Z,9.83
2023-05-03T09:54:47.453Z,7.48
2023-05-03T09:57:15.593Z,7.77
2023-05-03T09:59:45.493Z,8.43
2023-05-03T10:02:12.608Z,10.47
2023-05-03T10:04:52.097Z,12.92
2023-05-03T10:07:23.472Z,15.20
2023-05-03T10:09:51.373Z,17.26
2023-05-03T10:12:19.901Z,19.69
2023-05-03T10:14:48.857Z,20.23
2023-05-03T10:17:47.161Z,20.64
2023-05-03T10:20:39.080Z,21.34
2023-05-03T10:23:06.700Z,20.58
2023-05-03T10:25:35.976Z,19.67
2023-05-03T10:28:04.518Z,19.07
2023-05-03T10:30:32.756Z,19.47
2023-05-03T10:33:20.619Z,19.67
2023-05-03T10:35:54.709Z,19.87
2023-05-03T10:38:26.297Z,19.43
2023-05-03T10:40:55.486Z,19.68
2023-05-03T10:43:34.489Z,15.01
2023-05-03T10:46:06.948Z,13.05
2023-05-03T10:48:34.907Z,10.30
2023-05-03T10:51:37.465Z,9.90
2023-05-03T10:54:04.766Z,10.59
2023-05-03T10:56:31.691Z,7.51
2023-05-03T10:58:59.396Z,5.45
2023-05-03T11:01:27.633Z,4.03
2023-05-03T11:04:13.793Z,4.79
2023-05-03T11:06:46.356Z,8.00
2023-05-03T11:09:15.074Z,9.33
2023-05-03T11:11:42.894Z,11.81
2023-05-03T11:14:11.780Z,14.98
2023-05-03T11:16:47.744Z,16.70
2023-05-03T11:19:15.255Z,17.21
2023-05-03T11:21:43.439Z,18.19
2023-05-03T11:24:10.641Z,19.23
2023-05-03T11:26:40.230Z,18.06
2023-05-03T11:29:10.878Z,13.32
2023-05-03T11:31:37.834Z,14.20
2023-05-03T11:34:06.803Z,16.98
2023-05-03T11:36:34.358Z,19.12
2023-05-03T11:39:01.473Z,21.11
2023-05-03T11:41:28.649Z,22.30
2023-05-03T11:44:07.745Z,23.01
2023-05-03T11:46:42.998Z,23.79
2023-05-03T11:49:10.492Z,17.86
2023-05-03T11:51:37.814Z,16.79
2023-05-03T11:54:21.132Z,15.03
2023-05-03T11:57:01.217Z,13.69
2023-05-03T11:59:36.187Z,13.73
2023-05-03T12:02:05.433Z,15.26
2023-05-03T12:04:33.140Z,15.61
2023-05-03T12:07:00.937Z,16.58
2023-05-03T12:09:32.329Z,17.93
2023-05-03T12:12:02.210Z,20.24
2023-05-03T12:14:50.699Z,19.61
2023-05-03T12:17:44.318Z,19.25
2023-05-03T12:22:52.906Z,27.00
2023-05-03T12:25:25.920Z,25.07
2023-05-03T12:28:15.017Z,23.25
2023-05-03T12:30:45.362Z,24.91
2023-05-03T12:33:15.141Z,23.23
2023-05-03T12:35:47.812Z,23.70
2023-05-03T12:38:17.335Z,24.17
2023-05-03T12:40:47.828Z,25.80
2023-05-03T12:43:15.369Z,26.79
2023-05-03T12:45:46.588Z,26.51
2023-05-03T12:48:17.324Z,27.43
2023-05-03T12:50:45.528Z,27.53
2023-05-03T12:53:16.968Z,27.36
2023-05-03T12:55:48.243Z,27.60
2023-05-03T13:01:37.140Z,26.27
2023-05-03T13:03:43.101Z,25.71
2023-05-03T13:06:14.494Z,25.68
2023-05-03T13:11:12.900Z,26.00
2023-05-03T13:13:40.379Z,27.49
2023-05-03T13:16:08.152Z,27.71
2023-05-03T13:18:35.602Z,26.52
2023-05-03T13:21:02.408Z,27.26
2023-05-03T13:23:34.588Z,27.89
2023-05-03T13:26:01.587Z,29.58
2023-05-03T13:28:28.758Z,29.15
2023-05-03T13:30:55.869Z,29.14
2023-05-03T13:33:22.916Z,28.87
2023-05-03T13:35:49.945Z,29.31
2023-05-03T13:38:19.567Z,30.00
2023-05-03T13:40:47.258Z,30.08
2023-05-03T13:43:14.225Z,29.65
2023-05-03T13:45:43.722Z,29.58
2023-05-03T13:48:18.135Z,29.94
2023-05-03T13:50:45.811Z,30.91
2023-05-03T13:53:13.370Z,30.76
2023-05-03T13:55:40.411Z,30.04
2023-05-03T13:58:07.370Z,30.99
2023-05-03T14:00:34.537Z,30.52
2023-05-03T14:03:01.950Z,31.51
2023-05-03T14:05:29.184Z,31.47
2023-05-03T14:07:57.096Z,32.02
2023-05-03T14:10:24.401Z,31.31
2023-05-03T14:12:52.363Z,30.63
2023-05-03T14:15:19.412Z,31.76
2023-05-03T14:17:49.824Z,32.58
2023-05-03T14:20:18.000Z,31.97
2023-05-03T14:22:47.805Z,31.52
2023-05-03T14:25:14.727Z,30.35
2023-05-03T14:27:41.713Z,33.05
2023-05-03T14:30:12.973Z,32.22
2023-05-03T14:32:39.982Z,32.69
2023-05-03T14:35:08.212Z,33.37
2023-05-03T14:37:35.199Z,32.93
2023-05-03T14:40:02.420Z,33.70
2023-05-03T14:42:33.306Z,34.54
2023-05-03T14:45:00.647Z,35.20
2023-05-03T14:47:27.705Z,36.07
2023-05-03T14:49:54.769Z,35.17
2023-05-03T14:52:21.780Z,34.90
2023-05-03T14:54:48.602Z,35.90
2023-05-03T14:57:15.911Z,36.10
2023-05-03T14:59:43.021Z,35.73
2023-05-03T15:02:10.450Z,34.20
2023-05-03T15:04:40.640Z,34.82
2023-05-03T15:07:09.443Z,34.93
2023-05-03T15:09:38.344Z,35.71
2023-05-03T15:12:05.528Z,35.74
2023-05-03T15:14:35.048Z,35.69
2023-05-03T15:17:02.150Z,35.16
2023-05-03T15:19:29.535Z,35.51
2023-05-03T15:21:56.591Z,36.32
2023-05-03T15:24:23.792Z,36.66
2023-05-03T15:26:51.936Z,36.81
2023-05-03T15:29:18.774Z,35.65
2023-05-03T15:31:47.321Z,35.62
2023-05-03T15:34:14.370Z,35.39
2023-05-03T15:36:41.336Z,37.01
2023-05-03T15:39:09.518Z,36.61
2023-05-03T15:41:39.398Z,35.39
2023-05-03T15:44:08.286Z,36.20
2023-05-03T15:46:35.567Z,36.30
2023-05-03T15:49:02.830Z,35.18
2023-05-03T15:51:29.795Z,36.23
2023-05-03T15:53:56.824Z,36.06
2023-05-03T15:56:27.956Z,36.78
2023-05-03T15:58:55.001Z,37.17
2023-05-03T16:01:21.832Z,36.98
2023-05-03T16:03:49.174Z,36.96
2023-05-03T16:06:19.129Z,37.14
2023-05-03T16:08:46.289Z,36.22
2023-05-03T16:11:13.702Z,39.74
2023-05-03T16:13:40.719Z,38.59
2023-05-03T16:16:07.928Z,37.79
2023-05-03T16:18:35.442Z,39.80
2023-05-03T16:21:03.122Z,41.23
2023-05-03T16:23:30.104Z,41.13
2023-05-03T16:25:57.324Z,40.30
2023-05-03T16:28:24.503Z,40.81
2023-05-03T16:30:53.317Z,40.90
2023-05-03T16:33:20.588Z,41.01
2023-05-03T16:35:48.900Z,41.08
2023-05-03T16:38:15.773Z,41.56
2023-05-03T16:40:43.560Z,42.43
2023-05-03T16:43:10.777Z,42.25
2023-05-03T16:45:37.991Z,42.53
2023-05-03T16:48:06.791Z,42.35
2023-05-03T16:50:38.133Z,43.44
2023-05-03T16:53:04.988Z,42.56
2023-05-03T16:55:31.982Z,44.77
2023-05-03T16:57:58.775Z,50.50
2023-05-03T17:00:26.198Z,48.74
2023-05-03T17:02:53.535Z,47.57
2023-05-03T17:05:20.595Z,46.69
2023-05-03T17:07:47.525Z,49.03
2023-05-03T17:10:14.754Z,46.88
2023-05-03T17:12:48.030Z,46.35
2023-05-03T17:15:20.705Z,46.60
2023-05-03T17:17:52.260Z,47.13
2023-05-03T17:20:19.997Z,46.47
2023-05-03T17:22:46.966Z,47.03
2023-05-03T17:25:13.879Z,46.99
2023-05-03T17:27:44.255Z,46.77
2023-05-03T17:30:11.835Z,47.30
2023-05-03T17:32:38.876Z,48.08
2023-05-03T17:35:07.163Z,47.09
2023-05-03T17:37:34.222Z,48.09
2023-05-03T17:40:01.202Z,49.55
2023-05-03T17:42:28.413Z,50.70
2023-05-03T17:44:55.869Z,50.54
2023-05-03T17:47:25.187Z,51.80
2023-05-03T17:49:52.516Z,52.14
2023-05-03T17:52:19.641Z,53.49
2023-05-03T17:54:46.792Z,53.75
2023-05-03T17:57:13.743Z,53.42
2023-05-03T17:59:41.147Z,55.24
2023-05-03T18:02:08.197Z,55.68
2023-05-03T18:04:38.645Z,54.47
2023-05-03T18:07:06.023Z,54.43
2023-05-03T18:09:33.613Z,55.84
2023-05-03T18:12:02.452Z,55.14
2023-05-03T18:14:29.488Z,56.22
2023-05-03T18:16:56.352Z,56.81
2023-05-03T18:19:25.615Z,57.03
2023-05-03T18:21:52.658Z,57.92
2023-05-03T18:24:19.472Z,58.06
2023-05-03T18:26:47.503Z,58.73
2023-05-03T18:29:14.425Z,58.75
2023-05-03T18:31:41.915Z,58.86
2023-05-03T18:34:08.863Z,60.20
2023-05-03T18:36:35.779Z,59.90
2023-05-03T18:39:05.093Z,61.04
2023-05-03T18:41:32.219Z,61.51
2023-05-03T18:43:59.079Z,61.39
2023-05-03T18:46:26.219Z,61.55
2023-05-03T18:48:53.833Z,62.04
2023-05-03T18:51:20.681Z,62.06
2023-05-03T18:53:47.497Z,62.57
2023-05-03T18:56:14.643Z,62.41
2023-05-03T18:58:41.551Z,63.07
2023-05-03T19:01:08.722Z,63.36
2023-05-03T19:03:36.390Z,63.88
2023-05-03T19:06:04.922Z,63.91
2023-05-03T19:08:34.113Z,63.80
2023-05-03T19:11:13.062Z,64.45
2023-05-03T19:13:42.705Z,64.78
2023-05-03T19:16:09.682Z,64.54
2023-05-03T19:18:42.472Z,64.21
2023-05-03T19:21:09.790Z,64.85
2023-05-03T19:23:36.866Z,64.92
2023-05-03T19:26:04.297Z,65.13
2023-05-03T19:28:32.208Z,65.44
2023-05-03T19:31:03.333Z,66.38
2023-05-03T19:33:30.276Z,66.61
2023-05-03T19:35:57.489Z,66.58
2023-05-03T19:38:24.494Z,67.05
2023-05-03T19:40:58.198Z,66.50
2023-05-03T19:43:25.482Z,68.11
2023-05-03T19:45:53.202Z,69.34
2023-05-03T19:48:20.236Z,69.12
2023-05-03T19:50:47.912Z,70.45
2023-05-03T19:53:15.023Z,70.78
2023-05-03T19:55:42.158Z,70.83
2023-05-03T19:58:12.433Z,71.16
2023-05-03T20:00:39.349Z,71.99
2023-05-03T20:03:09.256Z,71.60
2023-05-03T20:05:36.359Z,72.45
2023-05-03T20:08:03.437Z,72.55
2023-05-03T20:10:35.822Z,72.41
2023-05-03T20:13:04.638Z,73.02
2023-05-03T20:15:32.229Z,73.54
2023-05-03T20:17:59.219Z,73.74
2023-05-03T20:20:26.295Z,74.31
2023-05-03T20:22:53.359Z,73.39
2023-05-03T20:25:24.059Z,73.43
2023-05-03T20:27:50.970Z,74.33
2023-05-03T20:30:18.191Z,74.40
2023-05-03T20:32:45.033Z,74.43
2023-05-03T20:35:12.577Z,75.39
2023-05-03T20:37:40.204Z,75.56
2023-05-03T20:40:08.149Z,76.16
2023-05-03T20:42:36.856Z,75.23
2023-05-03T20:45:04.292Z,75.96
2023-05-03T20:47:31.143Z,75.83
2023-05-03T20:49:58.117Z,76.61
2023-05-03T20:52:25.012Z,76.16
2023-05-03T20:54:52.380Z,76.13
2023-05-03T20:57:19.347Z,76.19
2023-05-03T20:59:46.153Z,77.54
2023-05-03T21:02:13.175Z,77.29
2023-05-03T21:04:40.444Z,75.94
2023-05-03T21:07:07.465Z,76.91
2023-05-03T21:09:34.413Z,76.69
2023-05-03T21:12:01.893Z,76.58
2023-05-03T21:14:29.184Z,77.12
2023-05-03T21:16:56.397Z,77.45
2023-05-03T21:19:23.506Z,76.84
2023-05-03T21:21:51.084Z,76.79
2023-05-03T21:24:17.967Z,77.24
2023-05-03T21:26:44.929Z,76.38
2023-05-03T21:29:14.637Z,76.96
2023-05-03T21:31:41.817Z,76.72
2023-05-03T21:34:08.938Z,77.16
2023-05-03T21:36:35.946Z,76.71
2023-05-03T21:39:02.751Z,76.47
2023-05-03T21:41:29.848Z,76.81
2023-05-03T21:43:56.794Z,76.64
2023-05-03T21:46:23.734Z,77.29
2023-05-03T21:48:50.797Z,77.33
2023-05-03T21:51:25.017Z,76.94
2023-05-03T21:53:52.290Z,76.76
2023-05-03T21:56:19.202Z,77.92
2023-05-03T21:58:46.075Z,77.88
2023-05-03T22:01:20.558Z,77.92
2023-05-03T22:03:49.757Z,77.36
2023-05-03T22:06:16.809Z,77.12
2023-05-03T22:08:43.763Z,77.43
2023-05-03T22:11:11.722Z,78.60
2023-05-03T22:13:49.618Z,79.68
2023-05-03T22:16:21.970Z,80.54
2023-05-03T22:18:49.312Z,80.54
2023-05-03T22:21:16.725Z,79.97
2023-05-03T22:23:43.816Z,80.22
2023-05-03T22:26:10.805Z,79.65
2023-05-03T22:28:37.727Z,79.03
2023-05-03T22:31:04.608Z,77.95
2023-05-03T22:33:31.632Z,77.62
2023-05-03T22:35:58.676Z,78.01
2023-05-03T22:38:25.681Z,78.86
2023-05-03T22:40:52.669Z,78.60
2023-05-03T22:43:19.617Z,78.76
2023-05-03T22:45:46.438Z,78.64
2023-05-03T22:48:13.855Z,78.74
2023-05-03T22:50:40.790Z,78.83
2023-05-03T22:53:07.751Z,79.62
2023-05-03T22:55:34.722Z,78.80
2023-05-03T22:58:01.749Z,78.90
2023-05-03T23:00:28.777Z,79.80
2023-05-03T23:02:55.856Z,78.33
2023-05-03T23:05:22.899Z,78.81
2023-05-03T23:07:49.854Z,78.64
2023-05-03T23:10:16.999Z,79.10
2023-05-03T23:12:43.975Z,78.72
2023-05-03T23:15:11.500Z,79.50
2023-05-03T23:17:38.458Z,79.24
2023-05-03T23:20:06.075Z,79.42
2023-05-03T23:22:32.980Z,79.45
2023-05-03T23:25:00.277Z,78.33
2023-05-03T23:27:27.440Z,80.10
2023-05-03T23:29:55.022Z,79.60
2023-05-03T23:32:22.700Z,80.02
2023-05-03T23:34:49.978Z,79.68
2023-05-03T23:37:16.952Z,80.04
2023-05-03T23:39:44.943Z,79.42
2023-05-03T23:42:13.192Z,80.13
2023-05-03T23:44:53.777Z,80.40
2023-05-03T23:47:21.740Z,80.26
2023-05-03T23:49:48.576Z,79.57
2023-05-03T23:52:17.181Z,80.18
2023-05-03T23:54:44.077Z,80.21
2023-05-03T23:57:11.633Z,79.64
2023-05-03T23:59:38.529Z,79.33
